sensor_id;sensor_type;location;lat;lon;timestamp;P1;durP1;ratioP1;P2;durP2;ratioP2
49592;SDS011;35499;51.482;4.264;2023-05-10T00:01:14;24.93;;;10.20;;
49592;SDS011;35499;51.482;4.264;2023-05-10T00:03:40;26.40;;;10.57;;
49592;SDS011;35499;51.482;4.264;2023-05-10T00:06:05;22.15;;;10.30;;
49592;SDS011;35499;51.482;4.264;2023-05-10T00:08:30;21.60;;;8.80;;
49592;SDS011;35499;51.482;4.264;2023-05-10T00:10:56;23.20;;;9.05;;
49592;SDS011;35499;51.482;4.264;2023-05-10T00:13:21;23.00;;;9.27;;
49592;SDS011;35499;51.482;4.264;2023-05-10T00:15:47;29.23;;;8.90;;
49592;SDS011;35499;51.482;4.264;2023-05-10T00:18:12;30.13;;;9.40;;
49592;SDS011;35499;51.482;4.264;2023-05-10T00:20:37;24.73;;;9.30;;
49592;SDS011;35499;51.482;4.264;2023-05-10T00:23:03;23.70;;;8.90;;
49592;SDS011;35499;51.482;4.264;2023-05-10T00:25:28;31.70;;;9.43;;
49592;SDS011;35499;51.482;4.264;2023-05-10T00:27:53;25.10;;;10.52;;
49592;SDS011;35499;51.482;4.264;2023-05-10T00:30:20;29.83;;;10.40;;
49592;SDS011;35499;51.482;4.264;2023-05-10T00:32:45;27.67;;;10.63;;
49592;SDS011;35499;51.482;4.264;2023-05-10T00:35:13;24.27;;;9.35;;
49592;SDS011;35499;51.482;4.264;2023-05-10T00:37:38;31.23;;;10.60;;
49592;SDS011;35499;51.482;4.264;2023-05-10T00:40:03;24.80;;;9.47;;
49592;SDS011;35499;51.482;4.264;2023-05-10T00:42:30;23.83;;;9.27;;
49592;SDS011;35499;51.482;4.264;2023-05-10T00:44:55;21.83;;;8.47;;
49592;SDS011;35499;51.482;4.264;2023-05-10T00:47:21;28.42;;;10.00;;
49592;SDS011;35499;51.482;4.264;2023-05-10T00:49:47;27.92;;;8.75;;
49592;SDS011;35499;51.482;4.264;2023-05-10T00:52:12;29.30;;;10.00;;
49592;SDS011;35499;51.482;4.264;2023-05-10T00:54:38;23.05;;;9.25;;
49592;SDS011;35499;51.482;4.264;2023-05-10T00:57:03;27.13;;;9.43;;
49592;SDS011;35499;51.482;4.264;2023-05-10T00:59:28;25.85;;;9.35;;
49592;SDS011;35499;51.482;4.264;2023-05-10T01:01:54;27.80;;;10.63;;
49592;SDS011;35499;51.482;4.264;2023-05-10T01:04:19;26.23;;;9.07;;
49592;SDS011;35499;51.482;4.264;2023-05-10T01:06:50;27.35;;;10.27;;
49592;SDS011;35499;51.482;4.264;2023-05-10T01:09:16;28.17;;;11.65;;
49592;SDS011;35499;51.482;4.264;2023-05-10T01:11:42;27.83;;;9.75;;
49592;SDS011;35499;51.482;4.264;2023-05-10T01:14:08;26.92;;;10.38;;
49592;SDS011;35499;51.482;4.264;2023-05-10T01:16:36;31.08;;;10.63;;
49592;SDS011;35499;51.482;4.264;2023-05-10T01:19:04;26.02;;;9.13;;
49592;SDS011;35499;51.482;4.264;2023-05-10T01:24:12;28.15;;;10.07;;
49592;SDS011;35499;51.482;4.264;2023-05-10T01:30:12;31.33;;;11.48;;
49592;SDS011;35499;51.482;4.264;2023-05-10T01:35:37;31.73;;;11.45;;
49592;SDS011;35499;51.482;4.264;2023-05-10T01:40:36;36.40;;;12.90;;
49592;SDS011;35499;51.482;4.264;2023-05-10T01:43:07;33.78;;;12.70;;
49592;SDS011;35499;51.482;4.264;2023-05-10T01:45:47;33.00;;;13.10;;
49592;SDS011;35499;51.482;4.264;2023-05-10T01:48:19;27.67;;;10.45;;
49592;SDS011;35499;51.482;4.264;2023-05-10T01:50:45;32.20;;;12.30;;
49592;SDS011;35499;51.482;4.264;2023-05-10T01:53:13;29.95;;;12.07;;
49592;SDS011;35499;51.482;4.264;2023-05-10T01:55:50;33.85;;;11.63;;
49592;SDS011;35499;51.482;4.264;2023-05-10T01:58:30;33.95;;;12.85;;
49592;SDS011;35499;51.482;4.264;2023-05-10T02:00:58;37.22;;;12.35;;
49592;SDS011;35499;51.482;4.264;2023-05-10T02:03:26;35.40;;;13.75;;
49592;SDS011;35499;51.482;4.264;2023-05-10T02:05:53;32.22;;;12.00;;
49592;SDS011;35499;51.482;4.264;2023-05-10T02:08:20;32.05;;;12.07;;
49592;SDS011;35499;51.482;4.264;2023-05-10T02:10:46;37.92;;;12.93;;
49592;SDS011;35499;51.482;4.264;2023-05-10T02:13:15;32.65;;;12.32;;
49592;SDS011;35499;51.482;4.264;2023-05-10T02:15:41;35.65;;;12.93;;
49592;SDS011;35499;51.482;4.264;2023-05-10T02:18:08;29.38;;;10.57;;
49592;SDS011;35499;51.482;4.264;2023-05-10T02:20:35;34.88;;;12.10;;
49592;SDS011;35499;51.482;4.264;2023-05-10T02:23:02;29.48;;;11.07;;
49592;SDS011;35499;51.482;4.264;2023-05-10T02:25:28;23.98;;;9.57;;
49592;SDS011;35499;51.482;4.264;2023-05-10T02:27:55;37.78;;;11.40;;
49592;SDS011;35499;51.482;4.264;2023-05-10T02:30:22;27.60;;;10.80;;
49592;SDS011;35499;51.482;4.264;2023-05-10T02:32:49;27.75;;;9.43;;
49592;SDS011;35499;51.482;4.264;2023-05-10T02:35:15;29.27;;;11.27;;
49592;SDS011;35499;51.482;4.264;2023-05-10T02:37:41;33.58;;;12.43;;
49592;SDS011;35499;51.482;4.264;2023-05-10T02:40:08;20.67;;;8.98;;
49592;SDS011;35499;51.482;4.264;2023-05-10T02:42:35;31.13;;;11.52;;
49592;SDS011;35499;51.482;4.264;2023-05-10T02:45:04;27.13;;;9.38;;
49592;SDS011;35499;51.482;4.264;2023-05-10T02:47:33;16.65;;;7.53;;
49592;SDS011;35499;51.482;4.264;2023-05-10T02:49:59;21.70;;;8.93;;
49592;SDS011;35499;51.482;4.264;2023-05-10T02:52:25;23.52;;;8.55;;
49592;SDS011;35499;51.482;4.264;2023-05-10T02:54:55;20.92;;;8.10;;
49592;SDS011;35499;51.482;4.264;2023-05-10T02:57:25;11.55;;;5.45;;
49592;SDS011;35499;51.482;4.264;2023-05-10T02:59:52;17.98;;;6.47;;
49592;SDS011;35499;51.482;4.264;2023-05-10T03:02:17;16.67;;;5.47;;
49592;SDS011;35499;51.482;4.264;2023-05-10T03:04:43;13.40;;;6.38;;
49592;SDS011;35499;51.482;4.264;2023-05-10T03:07:08;15.00;;;6.50;;
49592;SDS011;35499;51.482;4.264;2023-05-10T03:09:34;16.10;;;6.82;;
49592;SDS011;35499;51.482;4.264;2023-05-10T03:12:23;17.25;;;8.25;;
49592;SDS011;35499;51.482;4.264;2023-05-10T03:15:59;19.88;;;7.38;;
49592;SDS011;35499;51.482;4.264;2023-05-10T03:20:44;21.20;;;9.70;;
49592;SDS011;35499;51.482;4.264;2023-05-10T03:28:17;26.23;;;11.20;;
49592;SDS011;35499;51.482;4.264;2023-05-10T03:30:45;22.40;;;10.15;;
49592;SDS011;35499;51.482;4.264;2023-05-10T03:33:11;24.15;;;10.05;;
49592;SDS011;35499;51.482;4.264;2023-05-10T03:35:37;28.60;;;11.05;;
49592;SDS011;35499;51.482;4.264;2023-05-10T03:38:03;21.47;;;9.87;;
49592;SDS011;35499;51.482;4.264;2023-05-10T03:40:28;26.00;;;10.90;;
49592;SDS011;35499;51.482;4.264;2023-05-10T03:43:00;23.63;;;11.18;;
49592;SDS011;35499;51.482;4.264;2023-05-10T03:45:25;18.73;;;7.43;;
49592;SDS011;35499;51.482;4.264;2023-05-10T03:47:51;19.25;;;8.75;;
49592;SDS011;35499;51.482;4.264;2023-05-10T03:50:16;23.40;;;7.40;;
49592;SDS011;35499;51.482;4.264;2023-05-10T03:52:42;14.25;;;5.50;;
49592;SDS011;35499;51.482;4.264;2023-05-10T03:55:07;13.03;;;1.73;;
49592;SDS011;35499;51.482;4.264;2023-05-10T03:57:33;0.13;;;0.08;;
49592;SDS011;35499;51.482;4.264;2023-05-10T03:59:59;1.05;;;0.95;;
49592;SDS011;35499;51.482;4.264;2023-05-10T04:02:24;0.85;;;0.28;;
49592;SDS011;35499;51.482;4.264;2023-05-10T04:04:50;2.28;;;0.73;;
49592;SDS011;35499;51.482;4.264;2023-05-10T04:07:15;1.23;;;1.10;;
49592;SDS011;35499;51.482;4.264;2023-05-10T04:09:40;1.60;;;0.70;;
49592;SDS011;35499;51.482;4.264;2023-05-10T04:12:06;1.37;;;0.50;;
49592;SDS011;35499;51.482;4.264;2023-05-10T04:14:31;1.15;;;0.93;;
49592;SDS011;35499;51.482;4.264;2023-05-10T04:16:57;6.45;;;1.92;;
49592;SDS011;35499;51.482;4.264;2023-05-10T04:19:22;0.83;;;0.53;;
49592;SDS011;35499;51.482;4.264;2023-05-10T04:21:48;1.80;;;1.23;;
49592;SDS011;35499;51.482;4.264;2023-05-10T04:24:13;2.67;;;1.15;;
49592;SDS011;35499;51.482;4.264;2023-05-10T04:26:38;5.82;;;1.73;;
49592;SDS011;35499;51.482;4.264;2023-05-10T04:29:03;2.60;;;1.30;;
49592;SDS011;35499;51.482;4.264;2023-05-10T04:31:29;0.33;;;0.20;;
49592;SDS011;35499;51.482;4.264;2023-05-10T04:33:54;3.80;;;1.50;;
49592;SDS011;35499;51.482;4.264;2023-05-10T04:36:19;0.57;;;0.57;;
49592;SDS011;35499;51.482;4.264;2023-05-10T04:38:45;6.60;;;2.15;;
49592;SDS011;35499;51.482;4.264;2023-05-10T04:41:10;9.23;;;2.40;;
49592;SDS011;35499;51.482;4.264;2023-05-10T04:43:36;8.02;;;2.42;;
49592;SDS011;35499;51.482;4.264;2023-05-10T04:46:02;10.68;;;3.72;;
49592;SDS011;35499;51.482;4.264;2023-05-10T04:48:28;5.95;;;2.30;;
49592;SDS011;35499;51.482;4.264;2023-05-10T04:50:53;9.43;;;3.40;;
49592;SDS011;35499;51.482;4.264;2023-05-10T04:53:19;11.00;;;3.75;;
49592;SDS011;35499;51.482;4.264;2023-05-10T04:55:44;8.50;;;3.87;;
49592;SDS011;35499;51.482;4.264;2023-05-10T04:58:10;9.27;;;3.33;;
49592;SDS011;35499;51.482;4.264;2023-05-10T05:00:35;13.90;;;4.63;;
49592;SDS011;35499;51.482;4.264;2023-05-10T05:03:01;8.27;;;3.92;;
49592;SDS011;35499;51.482;4.264;2023-05-10T05:05:26;6.23;;;2.80;;
49592;SDS011;35499;51.482;4.264;2023-05-10T05:07:51;6.13;;;2.72;;
49592;SDS011;35499;51.482;4.264;2023-05-10T05:10:17;8.38;;;3.65;;
49592;SDS011;35499;51.482;4.264;2023-05-10T05:12:42;14.15;;;4.10;;
49592;SDS011;35499;51.482;4.264;2023-05-10T05:15:07;9.43;;;4.20;;
49592;SDS011;35499;51.482;4.264;2023-05-10T05:19:59;10.27;;;4.67;;
49592;SDS011;35499;51.482;4.264;2023-05-10T05:22:25;9.13;;;4.90;;
49592;SDS011;35499;51.482;4.264;2023-05-10T05:24:55;8.80;;;4.65;;
49592;SDS011;35499;51.482;4.264;2023-05-10T05:27:23;12.35;;;4.68;;
49592;SDS011;35499;51.482;4.264;2023-05-10T05:29:52;10.25;;;3.97;;
49592;SDS011;35499;51.482;4.264;2023-05-10T05:32:18;14.93;;;5.78;;
49592;SDS011;35499;51.482;4.264;2023-05-10T05:34:44;13.27;;;6.43;;
49592;SDS011;35499;51.482;4.264;2023-05-10T05:37:16;12.70;;;6.35;;
49592;SDS011;35499;51.482;4.264;2023-05-10T05:39:43;14.65;;;5.95;;
49592;SDS011;35499;51.482;4.264;2023-05-10T05:42:09;14.70;;;5.95;;
49592;SDS011;35499;51.482;4.264;2023-05-10T05:44:35;14.52;;;7.18;;
49592;SDS011;35499;51.482;4.264;2023-05-10T05:47:00;12.73;;;5.47;;
49592;SDS011;35499;51.482;4.264;2023-05-10T05:49:25;12.50;;;5.93;;
49592;SDS011;35499;51.482;4.264;2023-05-10T05:51:51;17.67;;;6.32;;
49592;SDS011;35499;51.482;4.264;2023-05-10T05:54:16;13.47;;;4.70;;
49592;SDS011;35499;51.482;4.264;2023-05-10T05:56:41;12.43;;;5.37;;
49592;SDS011;35499;51.482;4.264;2023-05-10T05:59:07;14.98;;;5.90;;
49592;SDS011;35499;51.482;4.264;2023-05-10T06:01:32;13.82;;;5.30;;
49592;SDS011;35499;51.482;4.264;2023-05-10T06:03:58;12.65;;;5.15;;
49592;SDS011;35499;51.482;4.264;2023-05-10T06:06:23;13.53;;;5.47;;
49592;SDS011;35499;51.482;4.264;2023-05-10T06:08:48;13.37;;;5.87;;
49592;SDS011;35499;51.482;4.264;2023-05-10T06:11:14;14.67;;;5.27;;
49592;SDS011;35499;51.482;4.264;2023-05-10T06:13:39;17.90;;;6.30;;
49592;SDS011;35499;51.482;4.264;2023-05-10T06:16:05;10.88;;;5.88;;
49592;SDS011;35499;51.482;4.264;2023-05-10T06:18:30;12.93;;;5.80;;
49592;SDS011;35499;51.482;4.264;2023-05-10T06:20:55;11.60;;;4.40;;
49592;SDS011;35499;51.482;4.264;2023-05-10T06:23:21;12.30;;;5.27;;
49592;SDS011;35499;51.482;4.264;2023-05-10T06:25:47;15.25;;;5.32;;
49592;SDS011;35499;51.482;4.264;2023-05-10T06:28:12;10.63;;;5.10;;
49592;SDS011;35499;51.482;4.264;2023-05-10T06:30:38;10.07;;;4.57;;
49592;SDS011;35499;51.482;4.264;2023-05-10T06:33:03;13.57;;;4.75;;
49592;SDS011;35499;51.482;4.264;2023-05-10T06:35:28;12.13;;;4.33;;
49592;SDS011;35499;51.482;4.264;2023-05-10T06:37:54;9.38;;;4.15;;
49592;SDS011;35499;51.482;4.264;2023-05-10T06:40:19;11.07;;;3.90;;
49592;SDS011;35499;51.482;4.264;2023-05-10T06:42:45;10.55;;;4.05;;
49592;SDS011;35499;51.482;4.264;2023-05-10T06:45:11;8.68;;;3.17;;
49592;SDS011;35499;51.482;4.264;2023-05-10T06:47:37;7.18;;;3.00;;
49592;SDS011;35499;51.482;4.264;2023-05-10T06:50:02;9.83;;;3.40;;
49592;SDS011;35499;51.482;4.264;2023-05-10T06:52:28;8.30;;;2.88;;
49592;SDS011;35499;51.482;4.264;2023-05-10T06:54:53;8.87;;;3.20;;
49592;SDS011;35499;51.482;4.264;2023-05-10T06:57:18;8.43;;;2.80;;
49592;SDS011;35499;51.482;4.264;2023-05-10T06:59:44;8.02;;;3.13;;
49592;SDS011;35499;51.482;4.264;2023-05-10T07:02:09;10.83;;;2.87;;
49592;SDS011;35499;51.482;4.264;2023-05-10T07:04:35;7.47;;;3.17;;
49592;SDS011;35499;51.482;4.264;2023-05-10T07:07:00;10.20;;;3.92;;
49592;SDS011;35499;51.482;4.264;2023-05-10T07:09:25;10.37;;;3.80;;
49592;SDS011;35499;51.482;4.264;2023-05-10T07:11:51;6.15;;;2.72;;
49592;SDS011;35499;51.482;4.264;2023-05-10T07:14:16;9.53;;;3.60;;
49592;SDS011;35499;51.482;4.264;2023-05-10T07:16:42;10.43;;;3.67;;
49592;SDS011;35499;51.482;4.264;2023-05-10T07:19:07;7.67;;;3.43;;
49592;SDS011;35499;51.482;4.264;2023-05-10T07:21:32;11.90;;;4.00;;
49592;SDS011;35499;51.482;4.264;2023-05-10T07:23:57;10.67;;;3.77;;
49592;SDS011;35499;51.482;4.264;2023-05-10T07:26:23;7.90;;;2.90;;
49592;SDS011;35499;51.482;4.264;2023-05-10T07:28:49;6.97;;;3.22;;
49592;SDS011;35499;51.482;4.264;2023-05-10T07:31:14;8.07;;;2.88;;
49592;SDS011;35499;51.482;4.264;2023-05-10T07:33:40;11.07;;;3.80;;
49592;SDS011;35499;51.482;4.264;2023-05-10T07:36:05;12.50;;;3.67;;
49592;SDS011;35499;51.482;4.264;2023-05-10T07:38:31;7.63;;;3.78;;
49592;SDS011;35499;51.482;4.264;2023-05-10T07:40:56;8.00;;;3.33;;
49592;SDS011;35499;51.482;4.264;2023-05-10T07:43:21;8.90;;;2.90;;
49592;SDS011;35499;51.482;4.264;2023-05-10T07:45:47;8.87;;;3.17;;
49592;SDS011;35499;51.482;4.264;2023-05-10T07:48:12;7.20;;;3.00;;
49592;SDS011;35499;51.482;4.264;2023-05-10T07:50:37;8.40;;;3.10;;
49592;SDS011;35499;51.482;4.264;2023-05-10T07:53:03;7.83;;;3.23;;
49592;SDS011;35499;51.482;4.264;2023-05-10T07:55:28;5.90;;;3.00;;
49592;SDS011;35499;51.482;4.264;2023-05-10T07:57:53;7.70;;;3.13;;
49592;SDS011;35499;51.482;4.264;2023-05-10T08:00:19;7.07;;;3.38;;
49592;SDS011;35499;51.482;4.264;2023-05-10T08:02:45;6.60;;;2.72;;
49592;SDS011;35499;51.482;4.264;2023-05-10T08:05:11;7.25;;;2.72;;
49592;SDS011;35499;51.482;4.264;2023-05-10T08:07:37;5.13;;;2.42;;
49592;SDS011;35499;51.482;4.264;2023-05-10T08:10:02;4.30;;;2.27;;
49592;SDS011;35499;51.482;4.264;2023-05-10T08:12:28;3.58;;;1.92;;
49592;SDS011;35499;51.482;4.264;2023-05-10T08:14:53;4.50;;;2.07;;
49592;SDS011;35499;51.482;4.264;2023-05-10T08:17:18;5.77;;;2.30;;
49592;SDS011;35499;51.482;4.264;2023-05-10T08:19:44;8.52;;;2.70;;
49592;SDS011;35499;51.482;4.264;2023-05-10T08:22:09;5.70;;;2.87;;
49592;SDS011;35499;51.482;4.264;2023-05-10T08:24:35;3.95;;;2.25;;
49592;SDS011;35499;51.482;4.264;2023-05-10T08:27:04;5.95;;;1.40;;
49592;SDS011;35499;51.482;4.264;2023-05-10T08:29:30;4.85;;;1.88;;
49592;SDS011;35499;51.482;4.264;2023-05-10T08:31:56;3.80;;;2.03;;
49592;SDS011;35499;51.482;4.264;2023-05-10T08:34:21;3.47;;;1.80;;
49592;SDS011;35499;51.482;4.264;2023-05-10T08:36:46;5.55;;;1.77;;
49592;SDS011;35499;51.482;4.264;2023-05-10T08:39:12;6.00;;;1.60;;
49592;SDS011;35499;51.482;4.264;2023-05-10T08:44:04;3.25;;;1.55;;
49592;SDS011;35499;51.482;4.264;2023-05-10T08:46:30;3.08;;;1.38;;
49592;SDS011;35499;51.482;4.264;2023-05-10T08:48:58;2.40;;;0.90;;
49592;SDS011;35499;51.482;4.264;2023-05-10T08:51:27;2.63;;;0.90;;
49592;SDS011;35499;51.482;4.264;2023-05-10T08:53:55;1.83;;;0.73;;
49592;SDS011;35499;51.482;4.264;2023-05-10T08:56:20;2.97;;;0.98;;
49592;SDS011;35499;51.482;4.264;2023-05-10T08:58:47;3.17;;;1.20;;
49592;SDS011;35499;51.482;4.264;2023-05-10T09:04:33;4.03;;;1.02;;
49592;SDS011;35499;51.482;4.264;2023-05-10T09:06:58;1.63;;;0.57;;
49592;SDS011;35499;51.482;4.264;2023-05-10T09:09:24;1.83;;;0.40;;
49592;SDS011;35499;51.482;4.264;2023-05-10T09:11:51;1.58;;;0.60;;
49592;SDS011;35499;51.482;4.264;2023-05-10T09:14:16;1.52;;;0.52;;
49592;SDS011;35499;51.482;4.264;2023-05-10T09:16:42;1.08;;;0.40;;
49592;SDS011;35499;51.482;4.264;2023-05-10T09:19:08;1.40;;;0.38;;
49592;SDS011;35499;51.482;4.264;2023-05-10T09:21:34;4.85;;;1.17;;
49592;SDS011;35499;51.482;4.264;2023-05-10T09:24:03;2.03;;;0.30;;
49592;SDS011;35499;51.482;4.264;2023-05-10T09:26:29;1.55;;;0.52;;
49592;SDS011;35499;51.482;4.264;2023-05-10T09:28:56;2.50;;;0.90;;
49592;SDS011;35499;51.482;4.264;2023-05-10T09:31:22;3.05;;;1.02;;
49592;SDS011;35499;51.482;4.264;2023-05-10T09:33:50;1.67;;;0.73;;
49592;SDS011;35499;51.482;4.264;2023-05-10T09:36:16;2.72;;;0.82;;
49592;SDS011;35499;51.482;4.264;2023-05-10T09:38:51;1.10;;;0.22;;
49592;SDS011;35499;51.482;4.264;2023-05-10T09:41:21;1.60;;;0.75;;
49592;SDS011;35499;51.482;4.264;2023-05-10T09:43:47;1.50;;;0.52;;
49592;SDS011;35499;51.482;4.264;2023-05-10T09:46:13;1.23;;;0.55;;
49592;SDS011;35499;51.482;4.264;2023-05-10T09:48:41;2.15;;;0.85;;
49592;SDS011;35499;51.482;4.264;2023-05-10T09:51:08;3.03;;;0.60;;
49592;SDS011;35499;51.482;4.264;2023-05-10T09:53:34;1.27;;;0.70;;
49592;SDS011;35499;51.482;4.264;2023-05-10T09:55:59;1.10;;;0.47;;
49592;SDS011;35499;51.482;4.264;2023-05-10T10:00:50;1.90;;;0.50;;
49592;SDS011;35499;51.482;4.264;2023-05-10T10:03:18;1.65;;;0.80;;
49592;SDS011;35499;51.482;4.264;2023-05-10T10:05:45;1.27;;;0.50;;
49592;SDS011;35499;51.482;4.264;2023-05-10T10:08:12;1.40;;;0.43;;
49592;SDS011;35499;51.482;4.264;2023-05-10T10:10:38;1.60;;;0.40;;
49592;SDS011;35499;51.482;4.264;2023-05-10T10:13:09;2.75;;;0.68;;
49592;SDS011;35499;51.482;4.264;2023-05-10T10:15:34;3.30;;;0.63;;
49592;SDS011;35499;51.482;4.264;2023-05-10T10:20:25;1.70;;;0.65;;
49592;SDS011;35499;51.482;4.264;2023-05-10T10:22:51;1.30;;;0.73;;
49592;SDS011;35499;51.482;4.264;2023-05-10T10:25:17;1.90;;;0.52;;
49592;SDS011;35499;51.482;4.264;2023-05-10T10:35:32;2.33;;;0.90;;
49592;SDS011;35499;51.482;4.264;2023-05-10T10:37:59;1.70;;;0.70;;
49592;SDS011;35499;51.482;4.264;2023-05-10T10:40:26;1.02;;;0.45;;
49592;SDS011;35499;51.482;4.264;2023-05-10T10:42:52;2.90;;;0.60;;
49592;SDS011;35499;51.482;4.264;2023-05-10T10:45:18;2.20;;;0.50;;
49592;SDS011;35499;51.482;4.264;2023-05-10T10:47:44;2.08;;;1.10;;
49592;SDS011;35499;51.482;4.264;2023-05-10T10:50:10;2.22;;;0.70;;
49592;SDS011;35499;51.482;4.264;2023-05-10T10:52:41;3.13;;;0.50;;
49592;SDS011;35499;51.482;4.264;2023-05-10T11:00:31;3.28;;;0.65;;
49592;SDS011;35499;51.482;4.264;2023-05-10T11:03:10;1.30;;;0.50;;
49592;SDS011;35499;51.482;4.264;2023-05-10T11:05:44;3.63;;;0.52;;
49592;SDS011;35499;51.482;4.264;2023-05-10T11:10:38;1.53;;;0.40;;
49592;SDS011;35499;51.482;4.264;2023-05-10T11:13:05;3.55;;;0.63;;
49592;SDS011;35499;51.482;4.264;2023-05-10T11:15:32;1.17;;;0.30;;
49592;SDS011;35499;51.482;4.264;2023-05-10T11:17:59;1.88;;;0.80;;
49592;SDS011;35499;51.482;4.264;2023-05-10T11:20:41;1.77;;;0.90;;
49592;SDS011;35499;51.482;4.264;2023-05-10T11:23:13;2.28;;;0.63;;
49592;SDS011;35499;51.482;4.264;2023-05-10T11:25:43;1.38;;;0.50;;
49592;SDS011;35499;51.482;4.264;2023-05-10T11:28:13;2.15;;;0.73;;
49592;SDS011;35499;51.482;4.264;2023-05-10T11:30:39;1.50;;;0.52;;
49592;SDS011;35499;51.482;4.264;2023-05-10T11:33:05;3.67;;;1.15;;
49592;SDS011;35499;51.482;4.264;2023-05-10T11:35:36;2.65;;;1.13;;
49592;SDS011;35499;51.482;4.264;2023-05-10T11:38:04;3.60;;;1.10;;
49592;SDS011;35499;51.482;4.264;2023-05-10T11:40:30;2.10;;;1.02;;
49592;SDS011;35499;51.482;4.264;2023-05-10T11:42:56;2.87;;;0.90;;
49592;SDS011;35499;51.482;4.264;2023-05-10T11:45:23;2.65;;;1.17;;
49592;SDS011;35499;51.482;4.264;2023-05-10T11:47:49;2.78;;;1.13;;
49592;SDS011;35499;51.482;4.264;2023-05-10T11:50:15;3.97;;;1.33;;
49592;SDS011;35499;51.482;4.264;2023-05-10T11:52:40;3.63;;;1.33;;
49592;SDS011;35499;51.482;4.264;2023-05-10T11:55:06;5.27;;;1.37;;
49592;SDS011;35499;51.482;4.264;2023-05-10T11:57:31;3.28;;;2.10;;
49592;SDS011;35499;51.482;4.264;2023-05-10T11:59:57;4.27;;;2.37;;
49592;SDS011;35499;51.482;4.264;2023-05-10T12:02:23;2.78;;;1.25;;
49592;SDS011;35499;51.482;4.264;2023-05-10T12:04:49;3.47;;;1.77;;
49592;SDS011;35499;51.482;4.264;2023-05-10T12:07:15;4.10;;;1.55;;
49592;SDS011;35499;51.482;4.264;2023-05-10T12:09:44;3.63;;;1.58;;
49592;SDS011;35499;51.482;4.264;2023-05-10T12:12:16;2.33;;;1.52;;
49592;SDS011;35499;51.482;4.264;2023-05-10T12:14:41;4.25;;;1.58;;
49592;SDS011;35499;51.482;4.264;2023-05-10T12:17:11;2.77;;;1.40;;
49592;SDS011;35499;51.482;4.264;2023-05-10T12:19:37;2.90;;;1.25;;
49592;SDS011;35499;51.482;4.264;2023-05-10T12:24:29;3.40;;;1.20;;
49592;SDS011;35499;51.482;4.264;2023-05-10T12:26:55;3.10;;;1.43;;
49592;SDS011;35499;51.482;4.264;2023-05-10T12:29:20;3.70;;;1.90;;
49592;SDS011;35499;51.482;4.264;2023-05-10T12:31:52;2.63;;;1.63;;
49592;SDS011;35499;51.482;4.264;2023-05-10T12:37:00;3.40;;;1.52;;
49592;SDS011;35499;51.482;4.264;2023-05-10T12:39:25;5.35;;;1.50;;
49592;SDS011;35499;51.482;4.264;2023-05-10T12:41:51;4.10;;;1.80;;
49592;SDS011;35499;51.482;4.264;2023-05-10T12:44:17;8.13;;;3.22;;
49592;SDS011;35499;51.482;4.264;2023-05-10T12:46:42;6.72;;;1.42;;
49592;SDS011;35499;51.482;4.264;2023-05-10T12:49:07;7.03;;;1.63;;
49592;SDS011;35499;51.482;4.264;2023-05-10T12:51:33;3.83;;;1.63;;
49592;SDS011;35499;51.482;4.264;2023-05-10T12:53:58;5.03;;;2.13;;
49592;SDS011;35499;51.482;4.264;2023-05-10T12:56:23;6.10;;;2.63;;
49592;SDS011;35499;51.482;4.264;2023-05-10T12:58:49;7.20;;;2.33;;
49592;SDS011;35499;51.482;4.264;2023-05-10T13:01:14;3.83;;;1.70;;
49592;SDS011;35499;51.482;4.264;2023-05-10T13:03:39;5.82;;;2.58;;
49592;SDS011;35499;51.482;4.264;2023-05-10T13:06:05;4.53;;;2.50;;
49592;SDS011;35499;51.482;4.264;2023-05-10T13:08:31;5.93;;;2.42;;
49592;SDS011;35499;51.482;4.264;2023-05-10T13:10:58;6.82;;;2.33;;
49592;SDS011;35499;51.482;4.264;2023-05-10T13:13:24;8.52;;;2.92;;
49592;SDS011;35499;51.482;4.264;2023-05-10T13:15:49;6.57;;;3.20;;
49592;SDS011;35499;51.482;4.264;2023-05-10T13:18:15;7.07;;;3.08;;
49592;SDS011;35499;51.482;4.264;2023-05-10T13:20:40;7.97;;;3.10;;
49592;SDS011;35499;51.482;4.264;2023-05-10T13:23:06;8.60;;;4.80;;
49592;SDS011;35499;51.482;4.264;2023-05-10T13:25:31;7.83;;;3.43;;
49592;SDS011;35499;51.482;4.264;2023-05-10T13:27:56;7.37;;;3.77;;
49592;SDS011;35499;51.482;4.264;2023-05-10T13:30:22;6.53;;;3.45;;
49592;SDS011;35499;51.482;4.264;2023-05-10T13:32:48;8.57;;;3.80;;
49592;SDS011;35499;51.482;4.264;2023-05-10T13:35:14;8.33;;;4.13;;
49592;SDS011;35499;51.482;4.264;2023-05-10T13:37:39;8.93;;;4.67;;
49592;SDS011;35499;51.482;4.264;2023-05-10T13:40:04;8.47;;;5.00;;
49592;SDS011;35499;51.482;4.264;2023-05-10T13:42:31;9.02;;;4.22;;
49592;SDS011;35499;51.482;4.264;2023-05-10T13:44:58;10.90;;;4.63;;
49592;SDS011;35499;51.482;4.264;2023-05-10T13:47:24;9.07;;;4.43;;
49592;SDS011;35499;51.482;4.264;2023-05-10T13:49:49;9.87;;;4.80;;
49592;SDS011;35499;51.482;4.264;2023-05-10T13:52:14;5.97;;;3.53;;
49592;SDS011;35499;51.482;4.264;2023-05-10T13:54:40;8.68;;;4.05;;
49592;SDS011;35499;51.482;4.264;2023-05-10T13:57:05;9.85;;;4.25;;
49592;SDS011;35499;51.482;4.264;2023-05-10T13:59:31;6.47;;;2.97;;
49592;SDS011;35499;51.482;4.264;2023-05-10T14:01:57;6.53;;;3.58;;
49592;SDS011;35499;51.482;4.264;2023-05-10T14:04:23;8.98;;;3.63;;
49592;SDS011;35499;51.482;4.264;2023-05-10T14:06:49;9.15;;;4.07;;
49592;SDS011;35499;51.482;4.264;2023-05-10T14:09:14;7.83;;;3.17;;
49592;SDS011;35499;51.482;4.264;2023-05-10T14:11:39;6.38;;;2.65;;
49592;SDS011;35499;51.482;4.264;2023-05-10T14:14:08;7.35;;;2.97;;
49592;SDS011;35499;51.482;4.264;2023-05-10T14:16:33;5.93;;;2.63;;
49592;SDS011;35499;51.482;4.264;2023-05-10T14:18:59;5.67;;;1.93;;
49592;SDS011;35499;51.482;4.264;2023-05-10T14:21:24;3.17;;;1.57;;
49592;SDS011;35499;51.482;4.264;2023-05-10T14:23:49;4.00;;;2.40;;
49592;SDS011;35499;51.482;4.264;2023-05-10T14:26:15;5.83;;;2.00;;
49592;SDS011;35499;51.482;4.264;2023-05-10T14:28:40;6.38;;;2.03;;
49592;SDS011;35499;51.482;4.264;2023-05-10T14:31:05;6.07;;;2.70;;
49592;SDS011;35499;51.482;4.264;2023-05-10T14:33:31;4.47;;;2.10;;
49592;SDS011;35499;51.482;4.264;2023-05-10T14:35:56;3.63;;;1.50;;
49592;SDS011;35499;51.482;4.264;2023-05-10T14:38:23;4.43;;;1.70;;
49592;SDS011;35499;51.482;4.264;2023-05-10T14:40:49;5.85;;;2.00;;
49592;SDS011;35499;51.482;4.264;2023-05-10T14:43:14;5.55;;;1.77;;
49592;SDS011;35499;51.482;4.264;2023-05-10T14:45:39;7.70;;;1.80;;
49592;SDS011;35499;51.482;4.264;2023-05-10T14:48:05;8.27;;;2.00;;
49592;SDS011;35499;51.482;4.264;2023-05-10T14:50:30;5.07;;;2.35;;
49592;SDS011;35499;51.482;4.264;2023-05-10T14:52:56;5.88;;;2.65;;
49592;SDS011;35499;51.482;4.264;2023-05-10T14:55:22;6.40;;;3.15;;
49592;SDS011;35499;51.482;4.264;2023-05-10T14:57:48;13.93;;;3.87;;
49592;SDS011;35499;51.482;4.264;2023-05-10T15:00:15;9.13;;;3.97;;
49592;SDS011;35499;51.482;4.264;2023-05-10T15:02:41;7.15;;;3.58;;
49592;SDS011;35499;51.482;4.264;2023-05-10T15:05:06;9.55;;;3.47;;
49592;SDS011;35499;51.482;4.264;2023-05-10T15:07:32;8.50;;;4.50;;
49592;SDS011;35499;51.482;4.264;2023-05-10T15:09:57;8.20;;;4.90;;
49592;SDS011;35499;51.482;4.264;2023-05-10T15:12:22;10.20;;;4.10;;
49592;SDS011;35499;51.482;4.264;2023-05-10T15:14:48;9.10;;;4.00;;
49592;SDS011;35499;51.482;4.264;2023-05-10T15:17:13;8.60;;;4.30;;
49592;SDS011;35499;51.482;4.264;2023-05-10T15:19:38;9.33;;;4.27;;
49592;SDS011;35499;51.482;4.264;2023-05-10T15:22:04;11.50;;;4.30;;
49592;SDS011;35499;51.482;4.264;2023-05-10T15:24:30;8.40;;;4.05;;
49592;SDS011;35499;51.482;4.264;2023-05-10T15:26:56;9.65;;;4.78;;
49592;SDS011;35499;51.482;4.264;2023-05-10T15:29:21;12.77;;;5.03;;